Time;durP1;ratioP1;P1;durP2;ratioP2;P2;SDS_P1;SDS_P2;PMS_P1;PMS_P2;Temp;Humidity;BMP_temperature;BMP_pressure;BME280_temperature;BME280_humidity;BME280_pressure;Samples;Min_cycle;Max_cycle;Signal;HPM_P1;HPM_P2
2021/01/19 00:02:29;;;;;;;;;;;;;;;-16.04;70.22;100555.42;1737810;81;20301;-65
2021/01/19 00:04:59;;;;;;;;;;;;;;;-16.04;70.25;100556.28;1733302;81;22798;-64
2021/01/19 00:07:29;;;;;;;;;;;;;;;-16.03;70.29;100547.02;1736322;81;20237;-63
2021/01/19 00:09:56;;;;;;;;;;;;;;;-15.98;70.35;100555.20;1754283;81;20237;-63
2021/01/19 00:12:24;;;;;;;;;;;;;;;-15.94;70.28;100555.73;1756661;81;20212;-63
2021/01/19 00:14:53;;;;;;;;;;;;;;;-15.92;70.27;100554.52;1730891;81;20525;-64
2021/01/19 00:17:21;;;;;;;;;;;;;;;-15.90;70.31;100559.23;1733848;82;24158;-64
2021/01/19 00:19:49;;;;;;;;;;;;;;;-15.92;70.40;100562.10;1755145;81;21214;-66
2021/01/19 00:22:16;;;;;;;;;;;;;;;-15.88;70.42;100566.87;1759301;81;20209;-63
2021/01/19 00:24:44;;;;;;;;;;;;;;;-15.89;70.42;100563.48;1757648;81;20569;-63
2021/01/19 00:27:11;;;;;;;;;;;;;;;-15.88;70.40;100571.52;1758800;81;20233;-66
2021/01/19 00:29:39;;;;;;;;;;;;;;;-15.89;70.40;100568.95;1753046;81;21845;-64
2021/01/19 00:32:07;;;;;;;;;;;;;;;-15.88;70.40;100568.13;1756487;81;20325;-64
2021/01/19 00:34:34;;;;;;;;;;;;;;;-15.86;70.52;100568.63;1754710;81;20399;-65
2021/01/19 00:37:03;;;;;;;;;;;;;;;-15.87;70.56;100566.91;1742446;81;21047;-64
2021/01/19 00:39:31;;;;;;;;;;;;;;;-15.85;70.52;100566.54;1730558;81;20254;-64
2021/01/19 00:41:58;;;;;;;;;;;;;;;-15.82;70.49;100567.92;1735901;81;22137;-64
2021/01/19 00:44:26;;;;;;;;;;;;;;;-15.77;70.50;100561.71;1745585;81;20457;-65
2021/01/19 00:46:53;;;;;;;;;;;;;;;-15.71;70.46;100570.76;1739611;81;20216;-62
2021/01/19 00:49:21;;;;;;;;;;;;;;;-15.69;70.42;100574.19;1734749;81;20339;-63
2021/01/19 00:51:50;;;;;;;;;;;;;;;-15.70;70.40;100567.00;1751914;81;20489;-63
2021/01/19 00:54:18;;;;;;;;;;;;;;;-15.66;70.39;100567.53;1756180;81;21893;-63
2021/01/19 00:56:46;;;;;;;;;;;;;;;-15.64;70.39;100565.03;1762966;79;20276;-63
2021/01/19 00:59:16;;;;;;;;;;;;;;;-15.63;70.41;100562.98;1744779;81;20279;-63
2021/01/19 01:01:47;;;;;;;;;;;;;;;-15.59;70.37;100560.09;1749373;81;20218;-63
2021/01/19 01:04:15;;;;;;;;;;;;;;;-15.57;70.37;100552.13;1746249;81;20233;-64
2021/01/19 01:06:43;;;;;;;;;;;;;;;-15.58;70.27;100551.27;1748758;79;22071;-64
2021/01/19 01:09:10;;;;;;;;;;;;;;;-15.63;70.23;100553.72;1758664;81;20379;-64
2021/01/19 01:11:40;;;;;;;;;;;;;;;-15.66;70.30;100547.28;1753136;80;20236;-64
2021/01/19 01:14:07;;;;;;;;;;;;;;;-15.66;70.34;100547.28;1767568;79;20248;-64
2021/01/19 01:16:38;;;;;;;;;;;;;;;-15.65;70.35;100552.79;1715467;81;20283;-64
2021/01/19 01:19:05;;;;;;;;;;;;;;;-15.65;70.38;100557.84;1762445;81;21971;-63
2021/01/19 01:21:37;;;;;;;;;;;;;;;-15.62;70.42;100559.23;1723425;81;20269;-63
2021/01/19 01:24:07;;;;;;;;;;;;;;;-15.59;70.43;100555.03;1716116;82;20218;-63
2021/01/19 01:26:34;;;;;;;;;;;;;;;-15.58;70.40;100557.59;1741409;81;20711;-63
2021/01/19 01:29:03;;;;;;;;;;;;;;;-15.56;70.29;100552.57;1759478;81;20731;-65
2021/01/19 01:31:31;;;;;;;;;;;;;;;-15.58;70.32;100555.06;1766282;81;21996;-64
2021/01/19 01:33:58;;;;;;;;;;;;;;;-15.61;70.31;100561.34;1762293;79;20356;-63
2021/01/19 01:36:25;;;;;;;;;;;;;;;-15.59;70.37;100558.83;1751457;81;20485;-64
2021/01/19 01:38:53;;;;;;;;;;;;;;;-15.57;70.38;100559.72;1755815;81;21338;-64
2021/01/19 01:41:22;;;;;;;;;;;;;;;-15.55;70.32;100557.67;1741112;81;20223;-63
2021/01/19 01:43:50;;;;;;;;;;;;;;;-15.56;70.30;100549.63;1742107;81;22077;-63
2021/01/19 01:46:20;;;;;;;;;;;;;;;-15.54;70.29;100550.94;1767374;81;20550;-63
2021/01/19 01:48:48;;;;;;;;;;;;;;;-15.58;70.27;100555.47;1750538;81;20276;-63
2021/01/19 01:51:15;;;;;;;;;;;;;;;-15.59;70.32;100549.55;1768341;81;21379;-64
2021/01/19 01:53:43;;;;;;;;;;;;;;;-15.58;70.37;100555.06;1743821;79;20243;-63
2021/01/19 01:56:11;;;;;;;;;;;;;;;-15.55;70.32;100551.75;1747331;79;22836;-64
2021/01/19 01:58:39;;;;;;;;;;;;;;;-15.53;70.32;100550.15;1706531;83;20352;-64
2021/01/19 02:01:07;;;;;;;;;;;;;;;-15.54;70.33;100549.67;1732437;82;20499;-63
2021/01/19 02:03:34;;;;;;;;;;;;;;;-15.51;70.35;100553.16;1710593;83;20540;-63
2021/01/19 02:06:02;;;;;;;;;;;;;;;-15.47;70.39;100545.23;1718060;82;20272;-64
2021/01/19 02:08:51;;;;;;;;;;;;;;;-15.46;70.25;100540.62;1719329;82;22091;-64
2021/01/19 02:11:58;;;;;;;;;;;;;;;-15.47;70.20;100542.70;1713061;82;20247;-63
2021/01/19 02:14:36;;;;;;;;;;;;;;;-15.50;70.18;100544.75;1705209;82;20230;-63
2021/01/19 02:17:30;;;;;;;;;;;;;;;-15.50;70.16;100546.42;1721921;82;20481;-63
2021/01/19 02:20:35;;;;;;;;;;;;;;;-15.53;70.22;100537.48;1721469;82;20180;-63
2021/01/19 02:23:27;;;;;;;;;;;;;;;-15.55;70.18;100539.09;1711303;82;21978;-66
2021/01/19 02:26:15;;;;;;;;;;;;;;;-15.56;70.23;100535.70;1725808;82;20418;-64
2021/01/19 02:28:53;;;;;;;;;;;;;;;-15.53;70.27;100526.09;1729422;81;20279;-64
2021/01/19 02:31:52;;;;;;;;;;;;;;;-15.52;70.26;100527.81;1712790;82;20307;-64
2021/01/19 02:34:38;;;;;;;;;;;;;;;-15.53;70.28;100521.89;1717981;81;20497;-63
2021/01/19 02:37:08;;;;;;;;;;;;;;;-15.52;70.23;100514.73;1721088;82;22140;-63
2021/01/19 02:39:47;;;;;;;;;;;;;;;-15.48;70.32;100517.79;1697800;82;20207;-63
2021/01/19 02:42:17;;;;;;;;;;;;;;;-15.46;70.16;100522.89;1732493;82;20224;-63
2021/01/19 02:44:44;;;;;;;;;;;;;;;-15.49;70.18;100517.75;1727163;82;20309;-63
2021/01/19 02:47:12;;;;;;;;;;;;;;;-15.48;70.17;100522.00;1705323;82;20285;-65
2021/01/19 02:49:42;;;;;;;;;;;;;;;-15.48;70.19;100510.61;1704938;82;22957;-64
2021/01/19 02:52:11;;;;;;;;;;;;;;;-15.44;70.17;100514.92;1727939;82;20248;-63
2021/01/19 02:54:40;;;;;;;;;;;;;;;-15.45;70.07;100513.21;1713715;81;20221;-63
2021/01/19 02:57:29;;;;;;;;;;;;;;;-15.46;70.12;100516.56;1743930;81;20488;-64
2021/01/19 03:00:18;;;;;;;;;;;;;;;-15.48;70.08;100513.14;1748283;79;20222;-65
2021/01/19 03:02:46;;;;;;;;;;;;;;;-15.45;70.10;100515.74;1743374;79;21905;-64
2021/01/19 03:05:13;;;;;;;;;;;;;;;-15.43;70.08;100513.73;1749109;81;21016;-63
2021/01/19 03:07:43;;;;;;;;;;;;;;;-15.43;70.05;100516.26;1753347;81;20234;-64
2021/01/19 03:10:12;;;;;;;;;;;;;;;-15.40;70.02;100515.06;1752231;81;20305;-63
2021/01/19 03:12:42;;;;;;;;;;;;;;;-15.42;69.96;100510.38;1769407;80;20216;-64
2021/01/19 03:15:11;;;;;;;;;;;;;;;-15.44;69.87;100508.22;1768856;80;22057;-64
2021/01/19 03:17:39;;;;;;;;;;;;;;;-15.49;69.91;100500.03;1748449;81;20371;-64
2021/01/19 03:20:09;;;;;;;;;;;;;;;-15.45;69.96;100508.15;1758703;81;20262;-63
2021/01/19 03:22:37;;;;;;;;;;;;;;;-15.43;69.96;100506.13;1753561;81;20521;-63
2021/01/19 03:25:06;;;;;;;;;;;;;;;-15.43;69.85;100511.20;1765371;80;20211;-66
2021/01/19 03:27:33;;;;;;;;;;;;;;;-15.49;69.60;100514.81;1758285;81;22080;-63
2021/01/19 03:30:00;;;;;;;;;;;;;;;-15.53;69.65;100514.30;1741677;81;20367;-66
2021/01/19 03:32:28;;;;;;;;;;;;;;;-15.54;69.57;100516.34;1753335;81;20696;-63
2021/01/19 03:34:56;;;;;;;;;;;;;;;-15.60;69.51;100515.37;1742002;81;20602;-63
2021/01/19 03:37:24;;;;;;;;;;;;;;;-15.67;69.48;100523.19;1752527;80;20218;-63
2021/01/19 03:39:52;;;;;;;;;;;;;;;-15.72;69.52;100528.55;1754957;81;22784;-63
2021/01/19 03:42:19;;;;;;;;;;;;;;;-15.74;69.52;100527.21;1760619;81;20332;-63
2021/01/19 03:44:48;;;;;;;;;;;;;;;-15.73;69.51;100525.13;1762172;81;20240;-64
2021/01/19 03:47:16;;;;;;;;;;;;;;;-15.69;69.52;100527.36;1743966;81;22780;-65
2021/01/19 03:49:44;;;;;;;;;;;;;;;-15.67;69.48;100529.52;1747539;81;20230;-64
2021/01/19 03:52:11;;;;;;;;;;;;;;;-15.68;69.36;100536.26;1753986;81;21887;-65
2021/01/19 03:54:39;;;;;;;;;;;;;;;-15.69;69.34;100534.55;1742431;81;20451;-64
2021/01/19 03:57:08;;;;;;;;;;;;;;;-15.70;69.34;100534.50;1758436;81;20267;-65
2021/01/19 03:59:36;;;;;;;;;;;;;;;-15.71;69.33;100527.73;1741301;81;20519;-65
2021/01/19 04:02:03;;;;;;;;;;;;;;;-15.73;69.24;100535.25;1717637;81;20211;-65
2021/01/19 04:04:30;;;;;;;;;;;;;;;-15.73;69.22;100535.25;1752600;80;22143;-65
2021/01/19 04:06:58;;;;;;;;;;;;;;;-15.73;69.26;100531.45;1727864;81;20376;-64
2021/01/19 04:09:27;;;;;;;;;;;;;;;-15.72;69.18;100533.20;1717961;82;20216;-65
2021/01/19 04:11:54;;;;;;;;;;;;;;;-15.74;69.08;100528.48;1735590;82;20483;-64
2021/01/19 04:14:21;;;;;;;;;;;;;;;-15.78;69.04;100527.09;1714272;82;20222;-66
2021/01/19 04:16:48;;;;;;;;;;;;;;;-15.83;69.01;100527.36;1753495;81;22707;-64
2021/01/19 04:19:16;;;;;;;;;;;;;;;-15.84;68.97;100537.03;1739733;81;20383;-65
2021/01/19 04:21:43;;;;;;;;;;;;;;;-15.87;69.01;100542.87;1745811;81;20267;-65
2021/01/19 04:24:11;;;;;;;;;;;;;;;-15.84;69.06;100542.95;1759069;81;20320;-67
2021/01/19 04:26:38;;;;;;;;;;;;;;;-15.82;69.09;100545.14;1768273;81;20303;-65
2021/01/19 04:29:05;;;;;;;;;;;;;;;-15.87;68.96;100551.72;1755090;81;22110;-64
2021/01/19 04:31:33;;;;;;;;;;;;;;;-15.91;68.94;100553.73;1761836;79;20367;-63
2021/01/19 04:34:02;;;;;;;;;;;;;;;-15.99;68.84;100557.29;1752763;81;20297;-63
2021/01/19 04:36:29;;;;;;;;;;;;;;;-16.05;68.85;100561.30;1758240;81;20318;-64
2021/01/19 04:38:58;;;;;;;;;;;;;;;-16.09;68.84;100556.56;1746685;81;20236;-69
2021/01/19 04:41:26;;;;;;;;;;;;;;;-16.12;68.91;100558.97;1752638;81;21898;-64
2021/01/19 04:43:55;;;;;;;;;;;;;;;-16.12;68.91;100558.97;1762708;81;20236;-65
2021/01/19 04:46:23;;;;;;;;;;;;;;;-16.14;68.90;100559.75;1759281;81;20403;-64
2021/01/19 04:48:50;;;;;;;;;;;;;;;-16.16;68.95;100563.50;1764684;81;20322;-65
2021/01/19 04:51:22;;;;;;;;;;;;;;;-16.14;68.96;100569.86;1757557;81;20277;-65
2021/01/19 04:54:02;;;;;;;;;;;;;;;-16.14;68.94;100571.12;1754116;79;22060;-66
2021/01/19 04:56:29;;;;;;;;;;;;;;;-16.16;68.87;100568.56;1763851;81;20232;-65
2021/01/19 04:58:58;;;;;;;;;;;;;;;-16.17;68.85;100571.05;1756960;80;20340;-65
2021/01/19 05:01:38;;;;;;;;;;;;;;;-16.19;68.86;100571.00;1747472;81;21194;-66
2021/01/19 05:04:43;;;;;;;;;;;;;;;-16.20;68.95;100571.41;1754796;79;20242;-66
2021/01/19 05:07:31;;;;;;;;;;;;;;;-16.21;68.89;100576.39;1740371;81;21898;-66
2021/01/19 05:10:04;;;;;;;;;;;;;;;-16.28;68.83;100582.09;1763656;79;20251;-67
2021/01/19 05:12:35;;;;;;;;;;;;;;;-16.31;68.84;100580.71;1760392;79;20249;-69
2021/01/19 05:15:03;;;;;;;;;;;;;;;-16.35;68.83;100584.83;1769104;80;20464;-67
2021/01/19 05:17:31;;;;;;;;;;;;;;;-16.43;68.83;100586.24;1747486;80;20235;-67
2021/01/19 05:20:00;;;;;;;;;;;;;;;-16.47;68.88;100581.05;1737514;81;23132;-65
2021/01/19 05:22:27;;;;;;;;;;;;;;;-16.45;68.99;100587.02;1747155;79;20434;-65
2021/01/19 05:24:54;;;;;;;;;;;;;;;-16.43;69.08;100584.98;1763932;79;20220;-66
2021/01/19 05:27:23;;;;;;;;;;;;;;;-16.40;69.12;100586.73;1765368;79;20305;-66
2021/01/19 05:30:02;;;;;;;;;;;;;;;-16.40;69.12;100587.62;1754546;79;20223;-67
2021/01/19 05:32:41;;;;;;;;;;;;;;;-16.39;69.18;100591.88;1752247;79;22992;-66
2021/01/19 05:35:17;;;;;;;;;;;;;;;-16.41;69.10;100589.67;1759490;79;21078;-68
2021/01/19 05:37:58;;;;;;;;;;;;;;;-16.41;69.21;100590.08;1754632;79;20230;-66
2021/01/19 05:40:26;;;;;;;;;;;;;;;-16.42;69.12;100593.02;1749394;79;21331;-68
2021/01/19 05:42:54;;;;;;;;;;;;;;;-16.39;69.24;100589.75;1766358;79;20462;-68
2021/01/19 05:45:22;;;;;;;;;;;;;;;-16.35;69.19;100599.14;1760411;79;21884;-68
2021/01/19 05:47:49;;;;;;;;;;;;;;;-16.37;69.12;100600.77;1766018;79;20370;-68
2021/01/19 05:50:16;;;;;;;;;;;;;;;-16.41;69.13;100598.52;1766827;79;20147;-68
2021/01/19 05:52:44;;;;;;;;;;;;;;;-16.41;69.15;100602.31;1760417;79;20315;-68
2021/01/19 05:55:11;;;;;;;;;;;;;;;-16.38;69.11;100608.75;1741940;81;20233;-68
2021/01/19 05:57:39;;;;;;;;;;;;;;;-16.42;68.99;100604.39;1758014;79;21878;-68
2021/01/19 06:00:08;;;;;;;;;;;;;;;-16.45;69.06;100606.83;1729508;80;20368;-68
2021/01/19 06:02:42;;;;;;;;;;;;;;;-16.43;69.11;100609.00;1744320;80;20231;-66
2021/01/19 06:05:15;;;;;;;;;;;;;;;-16.42;69.15;100613.23;1725453;81;20475;-66
2021/01/19 06:07:46;;;;;;;;;;;;;;;-16.37;69.14;100615.94;1734263;80;20247;-67
2021/01/19 06:10:18;;;;;;;;;;;;;;;-16.34;69.16;100623.61;1731623;80;22065;-66
2021/01/19 06:12:45;;;;;;;;;;;;;;;-16.34;69.04;100627.40;1745196;81;20368;-66
2021/01/19 06:15:14;;;;;;;;;;;;;;;-16.36;69.10;100636.20;1738921;80;20257;-66
2021/01/19 06:17:41;;;;;;;;;;;;;;;-16.33;69.13;100635.03;1747271;80;20305;-66
2021/01/19 06:20:09;;;;;;;;;;;;;;;-16.31;69.14;100640.98;1749892;80;20274;-66
2021/01/19 06:22:37;;;;;;;;;;;;;;;-16.28;69.11;100634.79;1752198;80;22962;-67
2021/01/19 06:25:07;;;;;;;;;;;;;;;-16.29;69.06;100631.81;1748072;80;20311;-66
2021/01/19 06:27:35;;;;;;;;;;;;;;;-16.29;69.06;100639.39;1728778;81;20249;-67
2021/01/19 06:30:08;;;;;;;;;;;;;;;-16.26;69.12;100639.48;1733984;81;20482;-66
2021/01/19 06:32:48;;;;;;;;;;;;;;;-16.27;69.06;100636.50;1740983;81;20405;-68
2021/01/19 06:35:20;;;;;;;;;;;;;;;-16.27;68.95;100633.12;1725716;81;22080;-68
2021/01/19 06:37:49;;;;;;;;;;;;;;;-16.30;68.93;100637.68;1753362;80;20229;-67
2021/01/19 06:40:20;;;;;;;;;;;;;;;-16.33;68.95;100643.02;1751463;80;20264;-67
2021/01/19 06:43:00;;;;;;;;;;;;;;;-16.33;68.92;100645.14;1726465;81;20476;-67
2021/01/19 06:45:27;;;;;;;;;;;;;;;-16.35;68.89;100645.91;1725189;83;20232;-68
2021/01/19 06:47:55;;;;;;;;;;;;;;;-16.34;68.98;100633.72;1754668;81;22063;-68
2021/01/19 06:50:27;;;;;;;;;;;;;;;-16.30;68.96;100636.82;1751562;80;20351;-68
2021/01/19 06:53:10;;;;;;;;;;;;;;;-16.30;68.92;100645.27;1719989;81;20236;-68
2021/01/19 06:55:40;;;;;;;;;;;;;;;-16.28;68.99;100648.70;1752469;81;21303;-67
2021/01/19 06:58:25;;;;;;;;;;;;;;;-16.23;68.92;100652.22;1751399;81;20315;-67
2021/01/19 07:00:57;;;;;;;;;;;;;;;-16.18;68.84;100650.27;1762313;79;21891;-67
2021/01/19 07:03:24;;;;;;;;;;;;;;;-16.16;68.92;100655.81;1763527;80;20234;-67
2021/01/19 07:05:58;;;;;;;;;;;;;;;-16.11;68.97;100653.05;1759293;79;20501;-68
2021/01/19 07:08:50;;;;;;;;;;;;;;;-16.05;68.86;100654.48;1765854;79;20483;-66
2021/01/19 07:11:40;;;;;;;;;;;;;;;-16.03;68.80;100653.27;1749022;79;20260;-67
2021/01/19 07:14:18;;;;;;;;;;;;;;;-15.96;68.77;100652.66;1755582;79;22160;-67
2021/01/19 07:16:57;;;;;;;;;;;;;;;-15.95;68.65;100648.05;1759192;79;20231;-67
2021/01/19 07:19:38;;;;;;;;;;;;;;;-15.96;68.59;100647.59;1754426;79;21314;-67
2021/01/19 07:22:12;;;;;;;;;;;;;;;-15.95;68.51;100653.10;1752252;79;22759;-71
2021/01/19 07:24:45;;;;;;;;;;;;;;;-15.93;68.56;100654.00;1763726;79;20320;-65
2021/01/19 07:27:15;;;;;;;;;;;;;;;-15.90;68.44;100655.39;1758288;81;22074;-67
2021/01/19 07:29:43;;;;;;;;;;;;;;;-15.92;68.42;100653.19;1740868;79;20473;-67
2021/01/19 07:32:15;;;;;;;;;;;;;;;-15.93;68.35;100657.39;1743905;79;20521;-71
2021/01/19 07:34:44;;;;;;;;;;;;;;;-15.89;68.33;100658.77;1757119;79;20314;-68
2021/01/19 07:37:12;;;;;;;;;;;;;;;-15.84;68.27;100655.55;1760824;81;20232;-67
2021/01/19 07:39:40;;;;;;;;;;;;;;;-15.79;68.26;100654.45;1767935;81;21894;-70
2021/01/19 07:42:14;;;;;;;;;;;;;;;-15.72;68.27;100663.95;1754982;81;20301;-67
2021/01/19 07:44:42;;;;;;;;;;;;;;;-15.71;68.03;100660.61;1745093;81;20236;-68
2021/01/19 07:47:13;;;;;;;;;;;;;;;-15.70;68.15;100657.27;1741690;81;21343;-67
2021/01/19 07:49:40;;;;;;;;;;;;;;;-15.65;68.14;100664.58;1760860;79;20236;-66
2021/01/19 07:52:12;;;;;;;;;;;;;;;-15.56;68.07;100665.23;1761004;81;21885;-67
2021/01/19 07:54:40;;;;;;;;;;;;;;;-15.55;67.89;100670.73;1751576;81;20240;-65
2021/01/19 07:57:13;;;;;;;;;;;;;;;-15.51;68.05;100664.97;1752251;81;20228;-68
2021/01/19 07:59:42;;;;;;;;;;;;;;;-15.43;67.86;100667.33;1739765;81;20438;-67
2021/01/19 08:02:21;;;;;;;;;;;;;;;-15.35;67.86;100666.72;1749694;79;20246;-69
2021/01/19 08:04:59;;;;;;;;;;;;;;;-15.24;67.87;100665.79;1745717;81;22990;-68
2021/01/19 08:07:39;;;;;;;;;;;;;;;-15.17;67.35;100660.47;1757239;81;20375;-67
2021/01/19 08:10:19;;;;;;;;;;;;;;;-15.12;67.37;100661.06;1762626;81;20244;-67
2021/01/19 08:12:49;;;;;;;;;;;;;;;-15.04;67.45;100665.09;1752175;81;21440;-66
2021/01/19 08:15:21;;;;;;;;;;;;;;;-14.95;67.30;100660.69;1755056;81;20232;-66
2021/01/19 08:17:54;;;;;;;;;;;;;;;-14.89;66.97;100658.30;1767300;81;21888;-66
2021/01/19 08:20:27;;;;;;;;;;;;;;;-14.85;66.78;100661.39;1745104;80;21212;-65
2021/01/19 08:22:57;;;;;;;;;;;;;;;-14.87;66.25;100665.12;1776034;79;20497;-65
2021/01/19 08:25:26;;;;;;;;;;;;;;;-14.89;66.28;100659.56;1756925;80;21316;-67
2021/01/19 08:27:56;;;;;;;;;;;;;;;-14.86;66.27;100658.38;1764112;79;20228;-67
2021/01/19 08:30:27;;;;;;;;;;;;;;;-14.85;66.12;100658.44;1759605;79;21881;-67
2021/01/19 08:32:55;;;;;;;;;;;;;;;-14.81;66.20;100658.96;1755298;79;20637;-68
2021/01/19 08:35:24;;;;;;;;;;;;;;;-14.75;65.58;100657.02;1770784;79;20228;-66
2021/01/19 08:37:54;;;;;;;;;;;;;;;-14.73;65.61;100650.72;1768466;81;20272;-67
2021/01/19 08:40:27;;;;;;;;;;;;;;;-14.74;65.17;100649.86;1744698;79;20402;-66
2021/01/19 08:42:54;;;;;;;;;;;;;;;-14.71;65.39;100652.88;1738396;82;22037;-66
2021/01/19 08:45:29;;;;;;;;;;;;;;;-14.65;65.36;100646.30;1740742;79;20313;-67
2021/01/19 08:47:57;;;;;;;;;;;;;;;-14.59;64.89;100651.51;1764905;79;20411;-67
2021/01/19 08:50:26;;;;;;;;;;;;;;;-14.53;64.99;100642.80;1763498;80;20307;-66
2021/01/19 08:52:54;;;;;;;;;;;;;;;-14.42;64.58;100645.58;1767058;79;20403;-69
2021/01/19 08:55:24;;;;;;;;;;;;;;;-14.40;64.18;100649.42;1756737;79;21839;-67
2021/01/19 08:57:59;;;;;;;;;;;;;;;-14.42;63.91;100643.45;1737465;81;20443;-66
2021/01/19 09:00:30;;;;;;;;;;;;;;;-14.46;63.65;100647.22;1759894;80;20268;-67
2021/01/19 09:02:59;;;;;;;;;;;;;;;-14.48;63.67;100646.30;1748200;81;20580;-66
2021/01/19 09:05:30;;;;;;;;;;;;;;;-14.50;63.62;100643.28;1752754;81;20225;-66
2021/01/19 09:07:58;;;;;;;;;;;;;;;-14.47;63.18;100645.51;1751292;81;22968;-70
2021/01/19 09:10:27;;;;;;;;;;;;;;;-14.44;62.92;100634.98;1730451;81;21231;-68
2021/01/19 09:12:56;;;;;;;;;;;;;;;-14.37;62.86;100633.88;1717616;81;20520;-69
2021/01/19 09:15:45;;;;;;;;;;;;;;;-14.25;62.66;100633.32;1755666;81;20319;-66
2021/01/19 09:18:15;;;;;;;;;;;;;;;-14.18;62.35;100633.92;1755651;81;20275;-70
2021/01/19 09:20:43;;;;;;;;;;;;;;;-14.12;62.17;100628.98;1748863;81;21213;-67
2021/01/19 09:23:18;;;;;;;;;;;;;;;-14.02;62.21;100624.98;1736424;80;21241;-68
2021/01/19 09:25:46;;;;;;;;;;;;;;;-14.00;61.73;100623.33;1756429;81;20244;-68
2021/01/19 09:28:15;;;;;;;;;;;;;;;-13.93;62.05;100627.32;1730017;83;21431;-67
2021/01/19 09:30:42;;;;;;;;;;;;;;;-13.75;61.53;100630.70;1726414;82;20492;-68
2021/01/19 09:33:11;;;;;;;;;;;;;;;-13.64;61.65;100622.90;1732279;82;22172;-67
2021/01/19 09:35:40;;;;;;;;;;;;;;;-13.60;61.00;100622.58;1720045;81;20360;-68
2021/01/19 09:38:14;;;;;;;;;;;;;;;-13.62;60.93;100614.04;1750181;81;20986;-68
2021/01/19 09:40:42;;;;;;;;;;;;;;;-13.58;60.48;100617.11;1737750;81;20551;-68
2021/01/19 09:43:15;;;;;;;;;;;;;;;-13.54;60.75;100620.56;1730428;81;20223;-69
2021/01/19 09:45:47;;;;;;;;;;;;;;;-13.49;60.59;100612.23;1749158;81;21902;-67
2021/01/19 09:51:29;;;;;;;;;;;;;;;-13.41;60.42;100617.44;1730800;81;20257;-68
2021/01/19 09:53:58;;;;;;;;;;;;;;;-13.36;60.35;100612.06;1756844;81;20322;-69
2021/01/19 09:56:27;;;;;;;;;;;;;;;-13.30;60.34;100602.03;1758147;81;20216;-70
2021/01/19 09:59:03;;;;;;;;;;;;;;;-13.21;60.39;100597.55;1733826;80;22107;-69
2021/01/19 10:01:31;;;;;;;;;;;;;;;-13.09;60.19;100605.38;1745512;79;20355;-70
2021/01/19 10:03:58;;;;;;;;;;;;;;;-13.07;59.92;100599.91;1753596;81;20253;-69
2021/01/19 10:06:26;;;;;;;;;;;;;;;-13.03;60.17;100601.66;1754989;81;20318;-70
2021/01/19 10:08:54;;;;;;;;;;;;;;;-12.94;60.24;100596.76;1767178;79;20491;-70
2021/01/19 10:11:34;;;;;;;;;;;;;;;-12.81;60.27;100594.91;1767333;81;21958;-70
2021/01/19 10:14:11;;;;;;;;;;;;;;;-12.71;59.61;100594.24;1767939;81;20450;-68
2021/01/19 10:16:47;;;;;;;;;;;;;;;-12.79;59.49;100594.52;1749959;81;20268;-68
2021/01/19 10:19:21;;;;;;;;;;;;;;;-12.84;59.29;100597.78;1768122;81;20381;-69
2021/01/19 10:21:51;;;;;;;;;;;;;;;-12.80;59.65;100595.77;1757139;81;20118;-69
2021/01/19 10:24:19;;;;;;;;;;;;;;;-12.78;59.16;100589.86;1756665;79;21882;-68
2021/01/19 10:27:07;;;;;;;;;;;;;;;-12.82;59.23;100585.56;1767551;80;20423;-68
2021/01/19 10:29:39;;;;;;;;;;;;;;;-12.90;58.62;100589.65;1746370;81;20232;-68
2021/01/19 10:32:08;;;;;;;;;;;;;;;-13.05;59.08;100585.12;1755360;81;20521;-69
2021/01/19 10:34:35;;;;;;;;;;;;;;;-12.90;59.99;100583.70;1767325;79;20268;-69
2021/01/19 10:37:04;;;;;;;;;;;;;;;-12.69;59.49;100568.83;1744977;81;22064;-72
2021/01/19 10:39:32;;;;;;;;;;;;;;;-12.46;59.94;100574.30;1781289;79;20444;-66
2021/01/19 10:42:00;;;;;;;;;;;;;;;-12.21;59.92;100566.65;1766205;80;20246;-66
2021/01/19 10:44:27;;;;;;;;;;;;;;;-11.99;58.86;100569.09;1738924;82;20451;-63
2021/01/19 10:46:57;;;;;;;;;;;;;;;-12.04;57.57;100575.83;1739563;81;20289;-64
2021/01/19 10:49:30;;;;;;;;;;;;;;;-12.20;58.04;100574.30;1738321;81;22824;-68
2021/01/19 10:51:58;;;;;;;;;;;;;;;-12.33;57.79;100574.09;1769404;81;20320;-67
2021/01/19 10:54:25;;;;;;;;;;;;;;;-12.37;58.01;100567.23;1715125;81;20269;-67
2021/01/19 10:57:04;;;;;;;;;;;;;;;-12.54;57.73;100568.25;1746665;79;20473;-66
2021/01/19 10:59:31;;;;;;;;;;;;;;;-12.63;58.03;100565.55;1763715;79;20263;-71
2021/01/19 11:02:02;;;;;;;;;;;;;;;-12.72;57.63;100563.28;1766398;79;22166;-71
2021/01/19 11:04:31;;;;;;;;;;;;;;;-12.74;58.12;100558.97;1755509;81;20360;-70
2021/01/19 11:07:01;;;;;;;;;;;;;;;-12.73;57.76;100553.94;1763501;81;20307;-71
2021/01/19 11:09:28;;;;;;;;;;;;;;;-12.82;57.58;100552.92;1766628;81;22698;-69
2021/01/19 11:11:56;;;;;;;;;;;;;;;-12.84;57.73;100555.41;1766316;80;20295;-70
2021/01/19 11:14:23;;;;;;;;;;;;;;;-12.75;58.22;100544.55;1765760;79;22970;-69
2021/01/19 11:16:50;;;;;;;;;;;;;;;-12.63;58.16;100556.64;1740304;81;20336;-69
2021/01/19 11:19:18;;;;;;;;;;;;;;;-12.60;58.00;100548.63;1737970;81;20285;-70
2021/01/19 11:21:46;;;;;;;;;;;;;;;-12.58;58.11;100544.84;1754818;80;20541;-68
2021/01/19 11:24:15;;;;;;;;;;;;;;;-12.40;58.03;100545.14;1767332;80;20727;-73
2021/01/19 11:26:44;;;;;;;;;;;;;;;-12.28;57.69;100544.47;1761553;80;22811;-69
2021/01/19 11:29:13;;;;;;;;;;;;;;;-12.19;58.03;100539.52;1757579;80;20283;-72
2021/01/19 11:31:40;;;;;;;;;;;;;;;-12.00;58.38;100535.55;1752765;80;20519;-69
2021/01/19 11:34:11;;;;;;;;;;;;;;;-11.76;58.63;100535.02;1740018;81;20314;-70
2021/01/19 11:36:39;;;;;;;;;;;;;;;-11.51;57.78;100525.97;1706872;84;20309;-69
2021/01/19 11:39:08;;;;;;;;;;;;;;;-11.47;57.51;100532.84;1725413;82;22082;-69
2021/01/19 11:41:36;;;;;;;;;;;;;;;-11.24;57.89;100528.84;1761219;80;20298;-68
2021/01/19 11:44:04;;;;;;;;;;;;;;;-11.09;57.47;100517.55;1766485;80;20442;-68
2021/01/19 11:46:32;;;;;;;;;;;;;;;-10.95;56.54;100524.05;1746614;81;21542;-68
2021/01/19 11:49:01;;;;;;;;;;;;;;;-10.81;57.11;100518.65;1769851;80;20596;-71
2021/01/19 11:51:32;;;;;;;;;;;;;;;-10.55;56.84;100516.76;1770928;80;22177;-68
2021/01/19 11:54:00;;;;;;;;;;;;;;;-10.44;56.36;100522.38;1744565;81;22730;-68
2021/01/19 11:56:42;;;;;;;;;;;;;;;-10.37;55.12;100523.71;1723554;82;20857;-69
2021/01/19 11:59:10;;;;;;;;;;;;;;;-10.41;55.15;100518.59;1724990;81;21221;-70
2021/01/19 12:01:38;;;;;;;;;;;;;;;-10.43;55.06;100520.25;1721996;83;20266;-69
2021/01/19 12:04:07;;;;;;;;;;;;;;;-10.40;53.73;100522.85;1712246;82;22082;-70
2021/01/19 12:06:41;;;;;;;;;;;;;;;-10.62;53.88;100518.39;1711865;82;20354;-71
2021/01/19 12:09:09;;;;;;;;;;;;;;;-10.66;54.44;100515.81;1711581;82;20287;-69
2021/01/19 12:11:41;;;;;;;;;;;;;;;-10.53;54.49;100526.13;1710078;82;20483;-70
2021/01/19 12:14:09;;;;;;;;;;;;;;;-10.56;53.42;100520.16;1713601;82;20228;-69
2021/01/19 12:16:36;;;;;;;;;;;;;;;-10.80;53.64;100519.11;1712625;82;21714;-69
2021/01/19 12:19:09;;;;;;;;;;;;;;;-10.84;53.62;100516.08;1716094;81;20359;-69
2021/01/19 12:21:39;;;;;;;;;;;;;;;-10.75;54.02;100526.80;1726632;82;20294;-69
2021/01/19 12:24:07;;;;;;;;;;;;;;;-10.66;53.55;100529.43;1725183;82;21559;-69
2021/01/19 12:26:35;;;;;;;;;;;;;;;-10.53;53.59;100532.51;1710059;82;20228;-69
2021/01/19 12:29:02;;;;;;;;;;;;;;;-10.41;53.18;100529.23;1742613;81;20569;-68
2021/01/19 12:31:29;;;;;;;;;;;;;;;-10.38;52.96;100530.52;1732513;81;20991;-69
2021/01/19 12:33:57;;;;;;;;;;;;;;;-10.38;52.21;100540.73;1720594;82;20308;-69
2021/01/19 12:36:24;;;;;;;;;;;;;;;-10.35;52.42;100538.61;1730520;81;20477;-71
2021/01/19 12:38:52;;;;;;;;;;;;;;;-10.27;52.29;100540.81;1726718;81;20279;-69
2021/01/19 12:41:19;;;;;;;;;;;;;;;-10.26;52.01;100538.69;1725770;81;21991;-71
2021/01/19 12:43:47;;;;;;;;;;;;;;;-10.24;52.03;100540.83;1735922;81;20266;-68
2021/01/19 12:46:17;;;;;;;;;;;;;;;-10.15;51.84;100548.09;1736445;81;20312;-69
2021/01/19 12:48:45;;;;;;;;;;;;;;;-10.05;51.87;100549.02;1732678;82;20557;-68
2021/01/19 12:51:14;;;;;;;;;;;;;;;-10.10;50.74;100557.94;1724676;82;20236;-68